createdAt,value
2023-05-10T00:01:21.169Z,9.53
2023-05-10T00:03:48.726Z,9.51
2023-05-10T00:06:15.962Z,9.50
2023-05-10T00:08:43.583Z,9.49
2023-05-10T00:11:16.440Z,9.47
2023-05-10T00:13:43.759Z,9.45
2023-05-10T00:16:10.846Z,9.42
2023-05-10T00:18:38.448Z,9.39
2023-05-10T00:21:06.153Z,9.36
2023-05-10T00:23:33.521Z,9.34
2023-05-10T00:26:00.666Z,9.36
2023-05-10T00:28:29.933Z,9.32
2023-05-10T00:30:57.260Z,9.35
2023-05-10T00:33:24.739Z,9.32
2023-05-10T00:35:51.946Z,9.29
2023-05-10T00:38:19.436Z,9.28
2023-05-10T00:40:46.460Z,9.27
2023-05-10T00:43:13.869Z,9.25
2023-05-10T00:45:41.433Z,9.25
2023-05-10T00:48:09.689Z,9.22
2023-05-10T00:50:36.793Z,9.21
2023-05-10T00:53:04.755Z,9.18
2023-05-10T00:55:32.237Z,9.15
2023-05-10T00:57:59.635Z,9.12
2023-05-10T01:00:29.869Z,9.10
2023-05-10T01:02:57.353Z,9.07
2023-05-10T01:05:24.625Z,9.08
2023-05-10T01:07:52.080Z,9.07
2023-05-10T01:10:19.679Z,9.04
2023-05-10T01:12:48.811Z,9.02
2023-05-10T01:15:17.782Z,9.02
2023-05-10T01:17:48.394Z,9.03
2023-05-10T01:20:16.546Z,9.03
2023-05-10T01:22:53.303Z,9.02
2023-05-10T01:25:55.748Z,8.99
2023-05-10T01:28:45.343Z,8.93
2023-05-10T01:31:39.434Z,8.91
2023-05-10T01:34:12.915Z,8.89
2023-05-10T01:36:46.724Z,8.90
2023-05-10T01:39:35.863Z,8.90
2023-05-10T01:42:18.885Z,8.85
2023-05-10T01:44:52.250Z,8.83
2023-05-10T01:47:44.303Z,8.80
2023-05-10T01:50:17.067Z,8.74
2023-05-10T01:52:49.231Z,8.70
2023-05-10T01:55:19.232Z,8.67
2023-05-10T01:57:52.134Z,8.58
2023-05-10T02:00:21.373Z,8.55
2023-05-10T02:02:50.852Z,8.49
2023-05-10T02:05:20.087Z,8.45
2023-05-10T02:07:48.460Z,8.42
2023-05-10T02:10:17.173Z,8.35
2023-05-10T02:12:47.188Z,8.31
2023-05-10T02:15:22.062Z,8.26
2023-05-10T02:17:49.869Z,8.26
2023-05-10T02:20:19.769Z,8.23
2023-05-10T02:22:50.313Z,8.16
2023-05-10T02:25:20.469Z,8.11
2023-05-10T02:27:49.426Z,8.06
2023-05-10T02:30:18.119Z,8.05
2023-05-10T02:32:48.031Z,7.99
2023-05-10T02:35:16.351Z,8.02
2023-05-10T02:37:45.112Z,8.01
2023-05-10T02:40:15.826Z,8.04
2023-05-10T02:42:45.873Z,8.00
2023-05-10T02:45:16.260Z,7.98
2023-05-10T02:47:43.435Z,7.96
2023-05-10T02:50:11.328Z,7.95
2023-05-10T02:52:43.552Z,7.96
2023-05-10T02:55:14.288Z,7.97
2023-05-10T02:57:47.366Z,7.98
2023-05-10T03:00:15.271Z,7.97
2023-05-10T03:02:43.431Z,7.96
2023-05-10T03:05:10.840Z,7.94
2023-05-10T03:07:37.883Z,7.97
2023-05-10T03:10:06.338Z,8.02
2023-05-10T03:12:41.817Z,8.06
2023-05-10T03:15:09.062Z,8.11
2023-05-10T03:17:47.341Z,8.17
2023-05-10T03:20:25.503Z,8.25
2023-05-10T03:22:57.467Z,8.30
2023-05-10T03:25:25.913Z,8.38
2023-05-10T03:27:53.444Z,8.41
2023-05-10T03:30:22.638Z,8.43
2023-05-10T03:32:49.671Z,8.54
2023-05-10T03:35:17.165Z,8.74
2023-05-10T03:37:44.260Z,8.97
2023-05-10T03:40:11.978Z,9.34
2023-05-10T03:42:40.100Z,9.81
2023-05-10T03:45:09.404Z,10.25
2023-05-10T03:47:36.389Z,10.53
2023-05-10T03:50:04.128Z,10.81
2023-05-10T03:52:31.170Z,11.22
2023-05-10T03:54:58.460Z,11.64
2023-05-10T03:57:25.937Z,12.08
2023-05-10T03:59:53.257Z,12.49
2023-05-10T04:02:21.055Z,12.90
2023-05-10T04:04:49.372Z,13.23
2023-05-10T04:07:16.561Z,13.62
2023-05-10T04:09:44.141Z,13.95
2023-05-10T04:12:11.276Z,14.15
2023-05-10T04:14:38.904Z,14.44
2023-05-10T04:17:09.233Z,14.67
2023-05-10T04:19:38.204Z,14.79
2023-05-10T04:22:05.701Z,14.86
2023-05-10T04:24:33.667Z,15.01
2023-05-10T04:27:00.730Z,15.19
2023-05-10T04:29:29.712Z,15.56
2023-05-10T04:32:00.758Z,15.85
2023-05-10T04:34:36.004Z,16.08
2023-05-10T04:37:06.524Z,16.30
2023-05-10T04:39:34.842Z,16.64
2023-05-10T04:42:04.034Z,16.84
2023-05-10T04:44:31.975Z,16.72
2023-05-10T05:16:34.204Z,15.82
2023-05-10T05:19:22.595Z,15.89
2023-05-10T05:27:46.180Z,17.49
2023-05-10T05:30:26.936Z,18.09
2023-05-10T05:35:59.282Z,19.00
2023-05-10T05:50:04.806Z,16.94
2023-05-10T05:52:47.623Z,16.48
2023-05-10T05:57:59.055Z,15.85
2023-05-10T06:00:43.087Z,15.72
2023-05-10T06:09:37.210Z,15.06
2023-05-10T06:23:40.922Z,14.83
2023-05-10T06:28:51.289Z,14.69
2023-05-10T06:31:34.382Z,14.53
2023-05-10T06:34:12.185Z,14.46
2023-05-10T06:36:40.537Z,14.42
2023-05-10T06:39:11.535Z,14.40
2023-05-10T06:41:58.664Z,14.43
2023-05-10T06:44:29.861Z,14.44
2023-05-10T06:52:27.644Z,14.35
2023-05-10T07:00:53.252Z,14.31
2023-05-10T07:03:25.401Z,14.24
2023-05-10T07:05:57.099Z,14.23
2023-05-10T07:08:28.271Z,14.34
2023-05-10T07:11:07.224Z,14.37
2023-05-10T07:13:35.830Z,14.17
2023-05-10T07:16:04.396Z,14.13
2023-05-10T07:18:40.310Z,14.23
2023-05-10T07:21:07.817Z,14.17
2023-05-10T07:23:36.284Z,14.20
2023-05-10T07:26:03.523Z,14.24
2023-05-10T07:28:41.720Z,14.28
2023-05-10T07:31:12.026Z,14.12
2023-05-10T07:33:40.347Z,14.11
2023-05-10T07:36:09.334Z,13.95
2023-05-10T07:38:40.919Z,13.99
2023-05-10T07:41:08.423Z,14.01
2023-05-10T07:43:38.827Z,14.11
2023-05-10T07:46:06.646Z,14.27
2023-05-10T07:48:35.767Z,14.32
2023-05-10T07:51:07.452Z,14.34
2023-05-10T07:53:35.338Z,14.28
2023-05-10T07:56:30.646Z,14.41
2023-05-10T07:59:02.300Z,14.43
2023-05-10T08:01:33.668Z,14.41
2023-05-10T08:04:03.129Z,14.56
2023-05-10T08:06:34.383Z,14.80
2023-05-10T08:09:02.709Z,14.94
2023-05-10T08:11:29.759Z,15.11
2023-05-10T08:13:59.252Z,15.26
2023-05-10T08:16:32.379Z,15.47
2023-05-10T08:19:00.693Z,15.40
2023-05-10T08:21:28.083Z,15.31
2023-05-10T08:23:56.020Z,15.63
2023-05-10T08:26:23.708Z,16.06
2023-05-10T08:28:51.703Z,16.90
2023-05-10T08:31:20.810Z,17.68
2023-05-10T08:33:48.932Z,17.79
2023-05-10T08:36:31.102Z,17.88
2023-05-10T08:39:04.532Z,18.09
2023-05-10T08:41:38.005Z,17.62
2023-05-10T08:44:09.344Z,17.39
2023-05-10T08:46:44.027Z,17.51
2023-05-10T08:49:20.308Z,18.82
2023-05-10T08:51:56.741Z,20.32
2023-05-10T08:54:30.302Z,21.21
2023-05-10T08:56:58.504Z,21.58
2023-05-10T08:59:26.868Z,21.76
2023-05-10T09:01:57.007Z,21.86
2023-05-10T09:04:27.713Z,22.19
2023-05-10T09:06:55.771Z,22.26
2023-05-10T09:09:24.802Z,22.55
2023-05-10T09:11:54.485Z,22.50
2023-05-10T09:17:08.554Z,22.91
2023-05-10T09:22:18.834Z,23.54
2023-05-10T09:24:47.572Z,23.31
2023-05-10T09:27:15.556Z,23.35
2023-05-10T09:29:44.809Z,23.44
2023-05-10T09:32:13.870Z,23.60
2023-05-10T09:35:00.435Z,23.98
2023-05-10T09:37:38.188Z,24.42
2023-05-10T09:40:12.322Z,25.00
2023-05-10T09:42:54.518Z,24.42
2023-05-10T09:45:24.240Z,23.06
2023-05-10T09:47:53.549Z,21.97
2023-05-10T09:50:21.737Z,20.83
2023-05-10T09:53:04.114Z,19.76
2023-05-10T09:55:37.616Z,19.17
2023-05-10T10:28:41.178Z,16.90
2023-05-10T10:31:35.479Z,17.34
2023-05-10T10:34:11.251Z,18.07
2023-05-10T10:39:51.530Z,18.48
2023-05-10T11:42:08.911Z,20.70
2023-05-10T11:44:48.562Z,20.08
2023-05-10T11:47:17.727Z,19.91
2023-05-10T11:49:46.131Z,19.30
2023-05-10T11:52:13.598Z,18.59
2023-05-10T11:54:55.428Z,17.91
2023-05-10T11:57:28.259Z,17.52
2023-05-10T11:59:58.613Z,17.20
2023-05-10T12:02:26.353Z,16.99
2023-05-10T12:04:54.352Z,16.66
2023-05-10T12:07:21.607Z,16.41
2023-05-10T12:10:09.750Z,16.15
2023-05-10T12:12:40.901Z,15.80
2023-05-10T12:15:23.532Z,15.42
2023-05-10T12:36:43.409Z,15.79
2023-05-10T12:39:11.441Z,16.00
2023-05-10T12:41:40.041Z,16.57
2023-05-10T12:44:08.714Z,17.50
2023-05-10T12:46:36.791Z,17.97
2023-05-10T12:49:09.762Z,17.77
2023-05-10T12:51:39.881Z,17.44
2023-05-10T12:54:12.786Z,17.43
2023-05-10T12:56:42.759Z,17.45
2023-05-10T12:59:10.418Z,17.31
2023-05-10T13:01:42.719Z,17.46
2023-05-10T13:04:14.662Z,17.62
2023-05-10T13:06:46.513Z,17.88
2023-05-10T13:09:15.527Z,17.91
2023-05-10T13:11:45.782Z,18.00
2023-05-10T13:14:14.647Z,17.89
2023-05-10T13:19:32.343Z,17.85
2023-05-10T13:21:59.771Z,17.49
2023-05-10T13:24:29.023Z,17.12
2023-05-10T13:26:56.602Z,16.91
2023-05-10T13:29:35.364Z,16.91
2023-05-10T13:32:04.209Z,16.99
2023-05-10T13:35:00.178Z,17.00
2023-05-10T13:37:28.450Z,16.97
2023-05-10T13:39:56.268Z,16.96
2023-05-10T13:42:24.778Z,17.08
2023-05-10T13:44:51.842Z,17.19
2023-05-10T13:47:19.829Z,17.29
2023-05-10T13:49:46.964Z,17.30
2023-05-10T13:52:14.897Z,17.36
2023-05-10T13:54:42.744Z,17.27
2023-05-10T13:57:10.365Z,17.41
2023-05-10T13:59:37.651Z,17.50
2023-05-10T14:02:05.364Z,17.30
2023-05-10T14:04:32.924Z,17.22
2023-05-10T14:07:01.204Z,17.31
2023-05-10T14:09:28.546Z,17.37
2023-05-10T14:12:00.705Z,17.41
2023-05-10T14:14:29.538Z,17.39
2023-05-10T14:16:58.063Z,17.36
2023-05-10T14:19:25.500Z,17.22
2023-05-10T14:21:56.358Z,17.15
2023-05-10T14:24:23.728Z,17.15
2023-05-10T14:29:36.380Z,17.06
2023-05-10T14:32:06.665Z,17.07
2023-05-10T14:34:35.707Z,17.05
2023-05-10T14:37:05.051Z,16.97
2023-05-10T14:42:26.820Z,16.64
2023-05-10T14:44:59.473Z,16.45
2023-05-10T14:47:31.543Z,16.53
2023-05-10T14:49:59.803Z,16.62
2023-05-10T14:53:05.139Z,16.55
2023-05-10T14:55:32.443Z,16.54
2023-05-10T14:58:00.568Z,16.48
2023-05-10T15:00:34.556Z,16.42
2023-05-10T15:03:16.773Z,16.51
2023-05-10T15:05:44.868Z,16.60
2023-05-10T15:08:17.078Z,16.63
2023-05-10T15:10:44.910Z,16.59
2023-05-10T15:13:13.780Z,16.52
2023-05-10T15:15:42.143Z,16.37
2023-05-10T15:26:58.932Z,16.09
2023-05-10T15:38:14.466Z,16.23
2023-05-10T15:43:53.319Z,16.26
2023-05-10T15:50:16.755Z,16.15
2023-05-10T15:53:00.310Z,16.05
2023-05-10T18:52:47.667Z,10.70
2023-05-10T18:55:15.217Z,10.59
2023-05-10T18:57:45.303Z,10.52
2023-05-10T19:00:12.962Z,10.43
2023-05-10T19:02:44.898Z,10.33
2023-05-10T19:05:15.778Z,10.28
2023-05-10T19:07:49.316Z,10.22
2023-05-10T19:10:16.788Z,10.16
2023-05-10T19:12:44.517Z,10.08
2023-05-10T19:15:12.343Z,10.01
2023-05-10T19:17:40.566Z,9.94
2023-05-10T19:20:08.708Z,9.88
2023-05-10T19:23:09.209Z,9.73
2023-05-10T19:25:37.179Z,9.66
2023-05-10T19:28:04.666Z,9.57
2023-05-10T19:30:31.956Z,9.52
2023-05-10T19:32:59.950Z,9.51
2023-05-10T19:35:38.305Z,9.50
2023-05-10T19:38:06.382Z,9.48
2023-05-10T19:40:34.165Z,9.46
2023-05-10T19:43:02.143Z,9.44
2023-05-10T19:45:29.351Z,9.46
2023-05-10T19:47:56.985Z,9.44
2023-05-10T19:50:24.228Z,9.41
2023-05-10T19:52:51.818Z,9.37
2023-05-10T19:55:31.238Z,9.31
2023-05-10T19:58:02.172Z,9.24
2023-05-10T20:00:31.925Z,9.13
2023-05-10T20:02:59.985Z,9.09
2023-05-10T20:05:27.610Z,9.04
2023-05-10T20:07:55.162Z,9.02
2023-05-10T20:10:23.820Z,9.01
2023-05-10T20:12:53.394Z,8.96
2023-05-10T20:15:23.019Z,8.93
2023-05-10T20:17:52.124Z,8.97
2023-05-10T20:20:20.302Z,8.97
2023-05-10T20:22:49.603Z,8.92
2023-05-10T20:25:18.262Z,8.83
2023-05-10T20:27:50.999Z,8.75
2023-05-10T20:30:20.341Z,8.71
2023-05-10T20:32:48.426Z,8.67
2023-05-10T20:35:15.532Z,8.61
2023-05-10T20:37:43.806Z,8.57
2023-05-10T20:40:11.474Z,8.58
2023-05-10T20:42:38.995Z,8.58
2023-05-10T20:45:06.626Z,8.56
2023-05-10T20:47:34.260Z,8.55
2023-05-10T20:50:01.424Z,8.55
2023-05-10T20:52:28.758Z,8.54
2023-05-10T20:54:56.139Z,8.53
2023-05-10T20:57:23.565Z,8.50
2023-05-10T20:59:51.254Z,8.50
2023-05-10T21:02:18.670Z,8.48
2023-05-10T21:04:46.302Z,8.46
2023-05-10T21:07:13.878Z,8.41
2023-05-10T21:09:42.639Z,8.38
2023-05-10T21:12:10.395Z,8.36
2023-05-10T21:14:37.349Z,8.34
2023-05-10T21:17:05.172Z,8.32
2023-05-10T21:19:32.394Z,8.29
2023-05-10T21:22:00.123Z,8.26
2023-05-10T21:24:27.231Z,8.26
2023-05-10T21:26:54.764Z,8.22
2023-05-10T21:29:21.792Z,8.17
2023-05-10T21:31:49.352Z,8.20
2023-05-10T21:34:18.023Z,8.20
2023-05-10T21:36:45.761Z,8.16
2023-05-10T21:39:12.813Z,8.15
2023-05-10T21:41:40.377Z,8.08
2023-05-10T21:44:07.521Z,8.09
2023-05-10T21:46:34.893Z,8.05
2023-05-10T21:49:01.868Z,8.00
2023-05-10T21:51:29.365Z,8.00
2023-05-10T21:53:59.353Z,7.98
2023-05-10T21:56:27.509Z,7.97
2023-05-10T21:58:54.873Z,7.93
2023-05-10T22:01:22.276Z,7.89
2023-05-10T22:03:49.376Z,7.82
2023-05-10T22:06:16.826Z,7.75
2023-05-10T22:08:44.274Z,7.70
2023-05-10T22:11:11.872Z,7.69
2023-05-10T22:13:38.857Z,7.71
2023-05-10T22:16:06.968Z,7.71
2023-05-10T22:18:34.285Z,7.67
2023-05-10T22:21:01.805Z,7.60
2023-05-10T22:23:28.960Z,7.51
2023-05-10T22:26:01.268Z,7.43
2023-05-10T22:28:28.919Z,7.37
2023-05-10T22:30:56.320Z,7.34
2023-05-10T22:33:23.675Z,7.29
2023-05-10T22:35:51.067Z,7.26
2023-05-10T22:38:18.140Z,7.32
2023-05-10T22:40:45.695Z,7.36
2023-05-10T22:43:12.775Z,7.37
2023-05-10T22:45:40.520Z,7.36
2023-05-10T22:48:09.546Z,7.31
2023-05-10T22:50:37.134Z,7.27
2023-05-10T22:53:05.136Z,7.21
2023-05-10T22:55:32.500Z,7.17
2023-05-10T22:57:59.591Z,7.10
2023-05-10T23:00:27.253Z,7.04
2023-05-10T23:02:55.112Z,6.96
2023-05-10T23:05:23.564Z,6.87
2023-05-10T23:07:53.384Z,6.81
2023-05-10T23:10:20.910Z,6.76
2023-05-10T23:12:48.174Z,6.69
2023-05-10T23:15:15.515Z,6.59
2023-05-10T23:17:42.640Z,6.52
2023-05-10T23:20:10.742Z,6.48
2023-05-10T23:22:37.939Z,6.46
2023-05-10T23:25:05.912Z,6.46
2023-05-10T23:27:33.038Z,6.46
2023-05-10T23:30:00.464Z,6.46
2023-05-10T23:32:27.550Z,6.45
2023-05-10T23:34:55.065Z,6.39
2023-05-10T23:37:22.067Z,6.34
2023-05-10T23:39:49.437Z,6.29
2023-05-10T23:42:16.542Z,6.24
2023-05-10T23:44:44.101Z,6.20
2023-05-10T23:47:11.180Z,6.17
2023-05-10T23:49:38.717Z,6.16
2023-05-10T23:52:05.768Z,6.15
2023-05-10T23:54:33.054Z,6.12
2023-05-10T23:57:00.072Z,6.14
2023-05-10T23:59:27.605Z,6.12
